首页
METAR-TAF:

METAR-TAF

机场 :

安東尼奧·汪帕特國際機場

阿加尼亚, 關島, 美国

纬度: 13-29N, 经度: 144-48E, 海拔: 91米

当前天气观测

该预报发布于31分钟前的10:54 UTC
风速8节,风向东转东北
温度 28°C
湿度 89%
气压 1013 hPa
能見度: 16.1公里
少量云层高于1800英尺

METAR: PGUM 241054Z 07008KT 10SM FEW018 28/26 A2990 RMK AO2 SLP118 T02780261

时间: 21:25 (11:25 UTC)

预报

该预报发布于6小时和2分钟前的05:23 UTC
预报有效从24日的 06点(UTC)到 25日的 12点(UTC)
风速14节,风向东转东北
能見度: 10公里
少量云层高于1800英尺
散云层高于2500英尺
多云层高于11000英尺
附近有阵雨
短暂存在
从 24日的 06点(UTC)到 24日的 10点(UTC)
能見度: 6.4公里
散云层高于1800英尺
阴天层高于2500英尺
阵雨
从 24日的 2300点(UTC)
风速11节,风向
能見度: 10公里
散云层高于2000英尺
散云层高于5000英尺
附近有阵雨

TAF: PGUM 240523Z 2406/2512 06014KT P6SM VCSH FEW018 SCT025 BKN110 TEMPO 2406/2410 4SM SHRA SCT018 OVC025 FM242300 10011KT P6SM VCSH SCT020 SCT050

超过4000个机场的气象观测和天气预报(METAR&TAF报告)。

可查询的气象台以黄色和红色小点在地图上表示。

将鼠标移到小点上方,可查看气象台名称。

然后点击查看天气观测和预报。

如需切换地图:点击带黑十字的绿色按钮放大地图;点击带横线的绿色按钮缩小地图;或者点击绿色箭头查看邻近地区的地图。


METAR-TAF: